Hlavní strana
METAR-TAF:

METAR-TAF

Letiště :

Barquisimeto, Venezuela

zeměpisná šířka: 10-04N, zeměpisná délka: 069-19W, výška: 613 m

Aktuální stav počasí

Zpráva byla vytvořena před 26 minutami, v 12:02 UTC
Východojihovýchodní vítr 4 kt
Teplota 22°C
Vlhkost vzduchu 100%
Tlak 1015 hPa

METAR: SVBM 261202Z AUTO 11004KT NCD 22/22 Q1015

Čas: 08:28 (12:28 UTC)

Předpověď počasí

Zpráva byla vytvořena před 1 hodinou a 19 minutami, v 11:09 UTC
Předpověď platná od 26 v 12 UTC do 27 v 12 UTC
Východojihovýchodní vítr 8 kt
Viditelnost: 6000 m
Skoro jasno ve výšce 1600 ft
Oblačno až skoro zataženo ve výšce 7000 ft
kouřmo
Změna
od 26 v 14 UTC do 26 v 18 UTC
Východní vítr 10 kt
Viditelnost: 7000 m
Skoro jasno ve výšce 1300 ft, Cumulonimbus.
Zataženo ve výšce 6000 ft

TAF: SVBM 261109Z 2612/2712 11008KT 6000 BR FEW016 BKN070 TX32/2618Z TN23/2708 BECMG 2614/2618 09010KT 7000 VCBRDZ FEW013CB OVC060

Stav a předpovědi počasí z více než 4 000 letišť (zprávy METAR a TAF).

Červené a žluté tečky na mapě představují dostupné meteorologické stanice.

Když kurzor umístíte na tečku, zobrazí se název stanice.

Pak kliknutím zobrazíte stav a předpověď počasí.

Chcete-li změnit mapu, kliknutím na zelené tlačítko se znaménkem +mapu přiblížíte, kliknutím na zelené tlačítko se znaménkem – mapu oddálíte a kliknutím na zelené šipky přejdete na sousední mapy.


METAR-TAF: